Franklin Furnace, Ohio
Current Conditions -  °F | °C
As of 12:51 PM on Sunday 25 Jan 2015 (Local Time) from KHTS Reporting Station
Clear Clear  
Wind Chill: 42°   Ceiling: Unl
Heat Index: 42°   Visibility: 10mi
Dew Point: 34°   Wind: 0mph
Humidity: 73%   Direction: NA
Pressure: 29.73"   Gusts: NA
Location:  38.65°N, 82.85°W
Report Text: KHTS 251751Z 00000KT 10SM CLR 06/01 A2973 RMK AO2 SLP070 T00560011 10056 20006 58020
Loading
Personal Weather Stations






























Interactive Weather Map New forecast layout! Learn more

10-Day Weather Forecast

Advertisements
Track Severe Weather on mobile